sensor_id;sensor_type;location;lat;lon;timestamp;pressure;altitude;pressure_sealevel;temperature;humidity
69239;BME280;56349;51.816;-0.026;2022-11-25T00:00:27;99759.18;;;22.06;37.67
69239;BME280;56349;51.816;-0.026;2022-11-25T00:02:53;99761.04;;;22.28;37.67
69239;BME280;56349;51.816;-0.026;2022-11-25T00:05:18;99756.06;;;22.21;37.74
69239;BME280;56349;51.816;-0.026;2022-11-25T00:07:45;99759.39;;;21.94;37.79
69239;BME280;56349;51.816;-0.026;2022-11-25T00:10:10;99756.05;;;21.87;37.87
69239;BME280;56349;51.816;-0.026;2022-11-25T00:12:36;99752.71;;;21.80;37.96
69239;BME280;56349;51.816;-0.026;2022-11-25T00:15:03;99755.31;;;21.99;38.01
69239;BME280;56349;51.816;-0.026;2022-11-25T00:17:27;99750.22;;;21.95;38.04
69239;BME280;56349;51.816;-0.026;2022-11-25T00:19:53;99757.56;;;21.91;38.10
69239;BME280;56349;51.816;-0.026;2022-11-25T00:22:19;99758.63;;;21.86;38.16
69239;BME280;56349;51.816;-0.026;2022-11-25T00:24:45;99757.59;;;21.81;38.22
69239;BME280;56349;51.816;-0.026;2022-11-25T00:27:11;99753.83;;;21.93;38.31
69239;BME280;56349;51.816;-0.026;2022-11-25T00:29:37;99755.01;;;22.06;38.46
69239;BME280;56349;51.816;-0.026;2022-11-25T00:32:03;99750.25;;;21.68;38.60
69239;BME280;56349;51.816;-0.026;2022-11-25T00:34:28;99756.86;;;21.37;38.72
69239;BME280;56349;51.816;-0.026;2022-11-25T00:36:54;99756.64;;;21.52;38.80
69239;BME280;56349;51.816;-0.026;2022-11-25T00:39:20;99760.08;;;21.23;38.90
69239;BME280;56349;51.816;-0.026;2022-11-25T00:41:46;99764.80;;;21.40;38.97
69239;BME280;56349;51.816;-0.026;2022-11-25T00:44:14;99769.61;;;21.33;39.05
69239;BME280;56349;51.816;-0.026;2022-11-25T00:46:37;99777.57;;;21.32;39.10
69239;BME280;56349;51.816;-0.026;2022-11-25T00:49:03;99780.98;;;21.13;39.06
69239;BME280;56349;51.816;-0.026;2022-11-25T00:51:29;99782.57;;;21.37;39.03
69239;BME280;56349;51.816;-0.026;2022-11-25T00:53:55;99783.32;;;21.39;39.01
69239;BME280;56349;51.816;-0.026;2022-11-25T00:56:21;99780.98;;;21.18;38.99
69239;BME280;56349;51.816;-0.026;2022-11-25T00:58:47;99782.62;;;21.16;39.01
69239;BME280;56349;51.816;-0.026;2022-11-25T01:01:13;99781.28;;;21.37;38.99
69239;BME280;56349;51.816;-0.026;2022-11-25T01:03:39;99781.87;;;21.35;39.02
69239;BME280;56349;51.816;-0.026;2022-11-25T01:06:06;99788.18;;;21.31;39.07
69239;BME280;56349;51.816;-0.026;2022-11-25T01:08:30;99789.22;;;21.04;39.10
69239;BME280;56349;51.816;-0.026;2022-11-25T01:10:57;99795.62;;;21.23;39.14
69239;BME280;56349;51.816;-0.026;2022-11-25T01:13:20;99793.15;;;20.98;39.18
69239;BME280;56349;51.816;-0.026;2022-11-25T01:15:46;99792.66;;;21.19;39.18
69239;BME280;56349;51.816;-0.026;2022-11-25T01:18:11;99796.95;;;21.16;39.22
69239;BME280;56349;51.816;-0.026;2022-11-25T01:20:37;99805.52;;;20.90;39.24
69239;BME280;56349;51.816;-0.026;2022-11-25T01:23:03;99810.83;;;21.09;39.28
69239;BME280;56349;51.816;-0.026;2022-11-25T01:25:29;99808.28;;;21.02;39.34
69239;BME280;56349;51.816;-0.026;2022-11-25T01:27:55;99815.08;;;20.92;39.44
69239;BME280;56349;51.816;-0.026;2022-11-25T01:30:21;99823.24;;;21.09;39.58
69239;BME280;56349;51.816;-0.026;2022-11-25T01:32:47;99823.65;;;20.99;39.69
69239;BME280;56349;51.816;-0.026;2022-11-25T01:35:13;99825.54;;;20.67;39.79
69239;BME280;56349;51.816;-0.026;2022-11-25T01:37:39;99825.88;;;20.91;39.81
69239;BME280;56349;51.816;-0.026;2022-11-25T01:40:06;99832.27;;;20.86;39.87
69239;BME280;56349;51.816;-0.026;2022-11-25T01:42:30;99829.07;;;20.62;39.84
69239;BME280;56349;51.816;-0.026;2022-11-25T01:47:22;99832.94;;;20.67;39.78
69239;BME280;56349;51.816;-0.026;2022-11-25T01:49:49;99839.42;;;20.70;39.71
69239;BME280;56349;51.816;-0.026;2022-11-25T01:52:15;99842.02;;;20.96;39.70
69239;BME280;56349;51.816;-0.026;2022-11-25T01:54:42;99845.76;;;20.95;39.71
69239;BME280;56349;51.816;-0.026;2022-11-25T01:57:06;99845.84;;;20.65;39.74
69239;BME280;56349;51.816;-0.026;2022-11-25T01:59:31;99842.63;;;20.40;39.75
69239;BME280;56349;51.816;-0.026;2022-11-25T02:01:56;99849.50;;;20.87;39.76
69239;BME280;56349;51.816;-0.026;2022-11-25T02:04:22;99851.75;;;20.61;39.75
69239;BME280;56349;51.816;-0.026;2022-11-25T02:06:51;99856.51;;;20.60;39.75
69239;BME280;56349;51.816;-0.026;2022-11-25T02:09:13;99861.12;;;20.85;39.75
69239;BME280;56349;51.816;-0.026;2022-11-25T02:11:39;99866.86;;;20.82;39.76
69239;BME280;56349;51.816;-0.026;2022-11-25T02:14:04;99874.30;;;20.80;39.78
69239;BME280;56349;51.816;-0.026;2022-11-25T02:16:29;99882.61;;;20.77;39.80
69239;BME280;56349;51.816;-0.026;2022-11-25T02:18:55;99888.46;;;20.75;39.83
69239;BME280;56349;51.816;-0.026;2022-11-25T02:21:24;99884.88;;;20.72;39.85
69239;BME280;56349;51.816;-0.026;2022-11-25T02:23:51;99892.23;;;20.70;39.86
69239;BME280;56349;51.816;-0.026;2022-11-25T02:26:12;99900.29;;;20.68;39.88
69239;BME280;56349;51.816;-0.026;2022-11-25T02:28:38;99905.47;;;20.65;39.91
69239;BME280;56349;51.816;-0.026;2022-11-25T02:31:03;99912.07;;;20.62;39.92
69239;BME280;56349;51.816;-0.026;2022-11-25T02:33:28;99914.22;;;20.62;39.93
69239;BME280;56349;51.816;-0.026;2022-11-25T02:35:55;99916.78;;;20.33;39.94
69239;BME280;56349;51.816;-0.026;2022-11-25T02:38:21;99921.39;;;20.55;39.97
69239;BME280;56349;51.816;-0.026;2022-11-25T02:40:47;99920.04;;;20.54;39.98
69239;BME280;56349;51.816;-0.026;2022-11-25T02:43:11;99922.25;;;20.52;39.98
69239;BME280;56349;51.816;-0.026;2022-11-25T02:45:44;99929.58;;;20.24;40.01
69239;BME280;56349;51.816;-0.026;2022-11-25T02:48:01;99935.06;;;20.48;40.03
69239;BME280;56349;51.816;-0.026;2022-11-25T02:50:27;99939.27;;;20.20;40.03
69239;BME280;56349;51.816;-0.026;2022-11-25T02:52:53;99945.65;;;20.46;40.03
69239;BME280;56349;51.816;-0.026;2022-11-25T02:55:19;99945.80;;;20.45;40.02
69239;BME280;56349;51.816;-0.026;2022-11-25T02:57:45;99948.79;;;20.42;40.04
69239;BME280;56349;51.816;-0.026;2022-11-25T03:00:12;99953.73;;;20.61;40.06
69239;BME280;56349;51.816;-0.026;2022-11-25T03:02:36;99957.39;;;20.34;40.10
69239;BME280;56349;51.816;-0.026;2022-11-25T03:05:02;99961.08;;;20.06;40.11
69239;BME280;56349;51.816;-0.026;2022-11-25T03:07:29;99968.52;;;20.31;40.12
69239;BME280;56349;51.816;-0.026;2022-11-25T03:09:54;99977.12;;;20.02;40.13
69239;BME280;56349;51.816;-0.026;2022-11-25T03:12:20;99977.47;;;20.48;40.15
69239;BME280;56349;51.816;-0.026;2022-11-25T03:14:46;99983.10;;;20.24;40.17
69239;BME280;56349;51.816;-0.026;2022-11-25T03:17:12;99987.60;;;20.22;40.18
69239;BME280;56349;51.816;-0.026;2022-11-25T03:19:38;99998.10;;;20.20;40.20
69239;BME280;56349;51.816;-0.026;2022-11-25T03:22:05;100002.92;;;20.18;40.20
69239;BME280;56349;51.816;-0.026;2022-11-25T03:24:31;100008.29;;;20.38;40.21
69239;BME280;56349;51.816;-0.026;2022-11-25T03:26:56;100014.40;;;20.14;40.22
69239;BME280;56349;51.816;-0.026;2022-11-25T03:29:22;100013.37;;;20.33;40.22
69239;BME280;56349;51.816;-0.026;2022-11-25T03:31:48;100012.83;;;20.09;40.23
69239;BME280;56349;51.816;-0.026;2022-11-25T03:34:14;100014.21;;;20.29;40.24
69239;BME280;56349;51.816;-0.026;2022-11-25T03:36:39;100017.11;;;20.30;40.23
69239;BME280;56349;51.816;-0.026;2022-11-25T03:39:05;100017.20;;;20.08;40.19
69239;BME280;56349;51.816;-0.026;2022-11-25T03:41:31;100020.25;;;20.28;40.21
69239;BME280;56349;51.816;-0.026;2022-11-25T03:43:57;100024.87;;;20.26;40.21
69239;BME280;56349;51.816;-0.026;2022-11-25T03:46:23;100020.76;;;20.04;40.21
69239;BME280;56349;51.816;-0.026;2022-11-25T03:48:49;100023.66;;;20.02;40.21
69239;BME280;56349;51.816;-0.026;2022-11-25T03:51:15;100021.63;;;20.02;40.21
69239;BME280;56349;51.816;-0.026;2022-11-25T03:53:41;100020.64;;;20.02;40.19
69239;BME280;56349;51.816;-0.026;2022-11-25T03:56:07;100027.64;;;20.45;40.17
69239;BME280;56349;51.816;-0.026;2022-11-25T03:58:33;100033.52;;;20.18;40.22
69239;BME280;56349;51.816;-0.026;2022-11-25T04:00:59;100044.02;;;19.94;40.23
69239;BME280;56349;51.816;-0.026;2022-11-25T04:03:24;100054.56;;;19.94;40.21
69239;BME280;56349;51.816;-0.026;2022-11-25T04:05:50;100061.19;;;19.96;40.19
69239;BME280;56349;51.816;-0.026;2022-11-25T04:08:16;100064.28;;;19.69;40.17
69239;BME280;56349;51.816;-0.026;2022-11-25T04:10:42;100073.52;;;20.35;40.20
69239;BME280;56349;51.816;-0.026;2022-11-25T04:13:08;100082.12;;;20.32;40.22
69239;BME280;56349;51.816;-0.026;2022-11-25T04:15:34;100087.35;;;20.23;40.31
69239;BME280;56349;51.816;-0.026;2022-11-25T04:17:59;100092.32;;;20.12;40.45
69239;BME280;56349;51.816;-0.026;2022-11-25T04:20:25;100092.05;;;20.05;40.53
69239;BME280;56349;51.816;-0.026;2022-11-25T04:22:51;100092.04;;;20.00;40.59
69239;BME280;56349;51.816;-0.026;2022-11-25T04:25:17;100096.65;;;19.96;40.62
69239;BME280;56349;51.816;-0.026;2022-11-25T04:27:43;100099.98;;;19.94;40.66
69239;BME280;56349;51.816;-0.026;2022-11-25T04:30:10;100100.73;;;19.90;40.73
69239;BME280;56349;51.816;-0.026;2022-11-25T04:32:36;100108.27;;;19.65;40.82
69239;BME280;56349;51.816;-0.026;2022-11-25T04:35:01;100114.15;;;19.88;40.92
69239;BME280;56349;51.816;-0.026;2022-11-25T04:37:27;100120.42;;;19.75;40.95
69239;BME280;56349;51.816;-0.026;2022-11-25T04:39:53;100127.96;;;20.12;40.90
69239;BME280;56349;51.816;-0.026;2022-11-25T04:42:19;100131.94;;;20.06;40.81
69239;BME280;56349;51.816;-0.026;2022-11-25T04:44:45;100137.36;;;20.00;40.69
69239;BME280;56349;51.816;-0.026;2022-11-25T04:47:10;100143.69;;;20.17;40.49
69239;BME280;56349;51.816;-0.026;2022-11-25T04:49:36;100149.78;;;20.35;40.23
69239;BME280;56349;51.816;-0.026;2022-11-25T04:52:02;100155.11;;;20.48;39.99
69239;BME280;56349;51.816;-0.026;2022-11-25T04:54:27;100158.16;;;20.57;39.79
69239;BME280;56349;51.816;-0.026;2022-11-25T04:56:54;100160.73;;;20.68;39.54
69239;BME280;56349;51.816;-0.026;2022-11-25T04:59:19;100169.23;;;20.73;39.35
69239;BME280;56349;51.816;-0.026;2022-11-25T05:01:44;100178.76;;;20.74;39.22
69239;BME280;56349;51.816;-0.026;2022-11-25T05:04:10;100179.34;;;20.46;39.13
69239;BME280;56349;51.816;-0.026;2022-11-25T05:06:36;100179.83;;;20.70;39.08
69239;BME280;56349;51.816;-0.026;2022-11-25T05:09:03;100183.81;;;20.68;39.10
69239;BME280;56349;51.816;-0.026;2022-11-25T05:11:28;100189.54;;;20.66;39.13
69239;BME280;56349;51.816;-0.026;2022-11-25T05:13:54;100200.22;;;20.63;39.22
69239;BME280;56349;51.816;-0.026;2022-11-25T05:16:20;100204.48;;;20.33;39.34
69239;BME280;56349;51.816;-0.026;2022-11-25T05:18:45;100207.52;;;20.57;39.48
69239;BME280;56349;51.816;-0.026;2022-11-25T05:21:11;100216.54;;;20.54;39.65
69239;BME280;56349;51.816;-0.026;2022-11-25T05:23:37;100220.30;;;20.27;39.79
69239;BME280;56349;51.816;-0.026;2022-11-25T05:26:03;100229.71;;;20.25;39.95
69239;BME280;56349;51.816;-0.026;2022-11-25T05:28:29;100235.06;;;20.50;40.12
69239;BME280;56349;51.816;-0.026;2022-11-25T05:30:54;100238.22;;;20.48;40.27
69239;BME280;56349;51.816;-0.026;2022-11-25T05:33:20;100238.42;;;20.41;40.51
69239;BME280;56349;51.816;-0.026;2022-11-25T05:35:54;100238.54;;;20.57;40.76
69239;BME280;56349;51.816;-0.026;2022-11-25T05:38:11;100238.47;;;20.31;40.97
69239;BME280;56349;51.816;-0.026;2022-11-25T05:40:37;100246.17;;;20.30;41.13
69239;BME280;56349;51.816;-0.026;2022-11-25T05:43:02;100248.47;;;20.29;41.29
69239;BME280;56349;51.816;-0.026;2022-11-25T05:45:28;100248.38;;;20.28;41.43
69239;BME280;56349;51.816;-0.026;2022-11-25T05:47:54;100251.22;;;20.30;41.54
69239;BME280;56349;51.816;-0.026;2022-11-25T05:50:20;100256.04;;;20.32;41.65
69239;BME280;56349;51.816;-0.026;2022-11-25T05:52:46;100257.91;;;20.33;41.76
69239;BME280;56349;51.816;-0.026;2022-11-25T05:55:13;100262.45;;;20.37;41.83
69239;BME280;56349;51.816;-0.026;2022-11-25T05:57:38;100269.04;;;20.42;41.89
69239;BME280;56349;51.816;-0.026;2022-11-25T06:00:03;100279.42;;;20.47;41.94
69239;BME280;56349;51.816;-0.026;2022-11-25T06:02:28;100283.99;;;20.49;41.98
69239;BME280;56349;51.816;-0.026;2022-11-25T06:04:54;100290.84;;;20.51;42.04
69239;BME280;56349;51.816;-0.026;2022-11-25T06:07:20;100294.00;;;20.53;42.10
69239;BME280;56349;51.816;-0.026;2022-11-25T06:09:46;100306.47;;;20.56;42.14
69239;BME280;56349;51.816;-0.026;2022-11-25T06:12:12;100311.53;;;20.60;42.16
69239;BME280;56349;51.816;-0.026;2022-11-25T06:14:39;100318.82;;;20.63;42.17
69239;BME280;56349;51.816;-0.026;2022-11-25T06:17:05;100324.75;;;20.41;42.17
69239;BME280;56349;51.816;-0.026;2022-11-25T06:19:31;100332.43;;;20.70;42.19
69239;BME280;56349;51.816;-0.026;2022-11-25T06:21:57;100343.91;;;20.73;42.21
69239;BME280;56349;51.816;-0.026;2022-11-25T06:24:23;100349.89;;;20.99;42.21
69239;BME280;56349;51.816;-0.026;2022-11-25T06:26:48;100357.32;;;20.58;42.13
69239;BME280;56349;51.816;-0.026;2022-11-25T06:29:14;100365.18;;;21.00;41.96
69239;BME280;56349;51.816;-0.026;2022-11-25T06:31:40;100371.86;;;21.09;41.81
69239;BME280;56349;51.816;-0.026;2022-11-25T06:34:06;100378.26;;;20.90;41.68
69239;BME280;56349;51.816;-0.026;2022-11-25T06:36:32;100378.75;;;21.20;41.58
69239;BME280;56349;51.816;-0.026;2022-11-25T06:38:57;100385.21;;;21.19;41.57
69239;BME280;56349;51.816;-0.026;2022-11-25T06:41:23;100394.55;;;21.12;41.61
69239;BME280;56349;51.816;-0.026;2022-11-25T06:43:49;100399.58;;;21.08;41.61
69239;BME280;56349;51.816;-0.026;2022-11-25T06:46:18;100403.77;;;21.05;41.60
69239;BME280;56349;51.816;-0.026;2022-11-25T06:48:41;100413.79;;;21.03;41.57
69239;BME280;56349;51.816;-0.026;2022-11-25T06:51:08;100420.27;;;21.02;41.51
69239;BME280;56349;51.816;-0.026;2022-11-25T06:53:31;100423.90;;;21.02;41.44
69239;BME280;56349;51.816;-0.026;2022-11-25T06:56:02;100431.43;;;21.01;41.38
69239;BME280;56349;51.816;-0.026;2022-11-25T06:58:22;100436.17;;;20.74;41.30
69239;BME280;56349;51.816;-0.026;2022-11-25T07:00:48;100441.01;;;21.03;41.22
69239;BME280;56349;51.816;-0.026;2022-11-25T07:03:14;100446.44;;;21.03;41.13
69239;BME280;56349;51.816;-0.026;2022-11-25T07:05:40;100453.66;;;21.01;41.08
69239;BME280;56349;51.816;-0.026;2022-11-25T07:08:06;100463.73;;;21.00;41.01
69239;BME280;56349;51.816;-0.026;2022-11-25T07:10:33;100465.18;;;20.97;40.98
69239;BME280;56349;51.816;-0.026;2022-11-25T07:12:58;100469.33;;;20.94;40.93
69239;BME280;56349;51.816;-0.026;2022-11-25T07:15:24;100470.57;;;20.92;40.88
69239;BME280;56349;51.816;-0.026;2022-11-25T07:17:50;100476.83;;;20.89;40.86
69239;BME280;56349;51.816;-0.026;2022-11-25T07:20:16;100481.38;;;20.86;40.82
69239;BME280;56349;51.816;-0.026;2022-11-25T07:22:42;100484.20;;;20.85;40.77
69239;BME280;56349;51.816;-0.026;2022-11-25T07:25:08;100487.89;;;20.82;40.72
69239;BME280;56349;51.816;-0.026;2022-11-25T07:27:33;100496.85;;;20.80;40.69
69239;BME280;56349;51.816;-0.026;2022-11-25T07:29:59;100504.63;;;20.76;40.69
69239;BME280;56349;51.816;-0.026;2022-11-25T07:32:25;100509.26;;;20.74;40.46
69239;BME280;56349;51.816;-0.026;2022-11-25T07:34:51;100518.15;;;20.70;40.45
69239;BME280;56349;51.816;-0.026;2022-11-25T07:37:17;100524.95;;;20.67;40.47
69239;BME280;56349;51.816;-0.026;2022-11-25T07:39:43;100529.34;;;20.64;40.54
69239;BME280;56349;51.816;-0.026;2022-11-25T07:42:09;100533.13;;;20.64;40.67
69239;BME280;56349;51.816;-0.026;2022-11-25T07:44:35;100538.72;;;20.66;40.80
69239;BME280;56349;51.816;-0.026;2022-11-25T07:47:01;100545.65;;;20.70;40.96
69239;BME280;56349;51.816;-0.026;2022-11-25T07:49:27;100550.21;;;20.77;41.09
69239;BME280;56349;51.816;-0.026;2022-11-25T07:51:54;100556.07;;;20.62;41.17
69239;BME280;56349;51.816;-0.026;2022-11-25T07:54:19;100566.99;;;21.04;41.06
69239;BME280;56349;51.816;-0.026;2022-11-25T07:56:44;100574.62;;;20.95;40.93
69239;BME280;56349;51.816;-0.026;2022-11-25T07:59:12;100579.72;;;21.17;40.70
69239;BME280;56349;51.816;-0.026;2022-11-25T08:01:35;100586.64;;;21.40;40.46
69239;BME280;56349;51.816;-0.026;2022-11-25T08:04:01;100594.21;;;21.48;40.13
69239;BME280;56349;51.816;-0.026;2022-11-25T08:06:27;100599.08;;;21.74;39.80
69239;BME280;56349;51.816;-0.026;2022-11-25T08:08:52;100602.22;;;21.61;39.41
69239;BME280;56349;51.816;-0.026;2022-11-25T08:11:19;100609.29;;;22.02;38.89
69239;BME280;56349;51.816;-0.026;2022-11-25T08:13:42;100615.68;;;22.20;38.39
69239;BME280;56349;51.816;-0.026;2022-11-25T08:16:09;100619.25;;;22.69;37.94
69239;BME280;56349;51.816;-0.026;2022-11-25T08:18:33;100628.13;;;22.65;37.66
69239;BME280;56349;51.816;-0.026;2022-11-25T08:20:59;100638.49;;;22.77;37.42
69239;BME280;56349;51.816;-0.026;2022-11-25T08:23:24;100647.62;;;23.10;37.19
69239;BME280;56349;51.816;-0.026;2022-11-25T08:25:51;100652.66;;;23.00;37.02
69239;BME280;56349;51.816;-0.026;2022-11-25T08:28:16;100658.66;;;23.13;36.78
69239;BME280;56349;51.816;-0.026;2022-11-25T08:30:42;100665.63;;;22.97;36.51
69239;BME280;56349;51.816;-0.026;2022-11-25T08:33:08;100672.40;;;23.04;36.18
69239;BME280;56349;51.816;-0.026;2022-11-25T08:35:34;100679.62;;;23.36;35.90
69239;BME280;56349;51.816;-0.026;2022-11-25T08:38:00;100681.99;;;23.06;35.65
69239;BME280;56349;51.816;-0.026;2022-11-25T08:40:26;100689.49;;;23.27;35.54
69239;BME280;56349;51.816;-0.026;2022-11-25T08:42:52;100693.13;;;23.38;35.51
69239;BME280;56349;51.816;-0.026;2022-11-25T08:45:18;100699.15;;;23.02;35.54
69239;BME280;56349;51.816;-0.026;2022-11-25T08:47:44;100701.22;;;23.08;35.63
69239;BME280;56349;51.816;-0.026;2022-11-25T08:50:13;100707.67;;;22.70;35.75
69239;BME280;56349;51.816;-0.026;2022-11-25T08:52:35;100711.90;;;22.77;35.93
69239;BME280;56349;51.816;-0.026;2022-11-25T08:55:01;100715.27;;;22.60;36.11
69239;BME280;56349;51.816;-0.026;2022-11-25T08:57:27;100723.42;;;22.44;36.39
69239;BME280;56349;51.816;-0.026;2022-11-25T08:59:53;100729.37;;;22.30;36.67
69239;BME280;56349;51.816;-0.026;2022-11-25T09:02:19;100734.81;;;22.17;36.92
69239;BME280;56349;51.816;-0.026;2022-11-25T09:04:46;100742.78;;;22.05;37.12
69239;BME280;56349;51.816;-0.026;2022-11-25T09:07:10;100753.31;;;22.45;37.29
69239;BME280;56349;51.816;-0.026;2022-11-25T09:09:36;100765.78;;;22.11;37.34
69239;BME280;56349;51.816;-0.026;2022-11-25T09:12:03;100774.87;;;22.00;37.34
69239;BME280;56349;51.816;-0.026;2022-11-25T09:14:28;100777.87;;;22.14;37.40
69239;BME280;56349;51.816;-0.026;2022-11-25T09:16:54;100781.69;;;22.03;37.42
69239;BME280;56349;51.816;-0.026;2022-11-25T09:19:20;100786.69;;;21.93;37.54
69239;BME280;56349;51.816;-0.026;2022-11-25T09:21:45;100792.08;;;21.84;37.75
69239;BME280;56349;51.816;-0.026;2022-11-25T09:24:11;100791.38;;;21.75;37.93
69239;BME280;56349;51.816;-0.026;2022-11-25T09:26:37;100796.71;;;21.68;38.09
69239;BME280;56349;51.816;-0.026;2022-11-25T09:29:03;100801.69;;;21.61;38.23
69239;BME280;56349;51.816;-0.026;2022-11-25T09:31:28;100808.83;;;21.73;37.75
69239;BME280;56349;51.816;-0.026;2022-11-25T09:44:03;100833.56;;;21.06;36.58
69239;BME280;56349;51.816;-0.026;2022-11-25T09:46:37;100837.60;;;21.00;36.77
69239;BME280;56349;51.816;-0.026;2022-11-25T09:48:57;100841.10;;;20.93;36.92
69239;BME280;56349;51.816;-0.026;2022-11-25T09:51:20;100844.30;;;20.88;37.05
69239;BME280;56349;51.816;-0.026;2022-11-25T09:53:44;100850.62;;;20.57;37.19
69239;BME280;56349;51.816;-0.026;2022-11-25T09:56:13;100856.97;;;20.81;37.28
69239;BME280;56349;51.816;-0.026;2022-11-25T09:58:35;100859.75;;;20.78;37.37
69239;BME280;56349;51.816;-0.026;2022-11-25T10:00:59;100867.35;;;20.73;37.47
69239;BME280;56349;51.816;-0.026;2022-11-25T10:03:31;100879.99;;;20.90;37.55
69239;BME280;56349;51.816;-0.026;2022-11-25T10:05:56;100884.46;;;20.84;37.65
69239;BME280;56349;51.816;-0.026;2022-11-25T10:08:19;100886.62;;;20.60;37.70
69239;BME280;56349;51.816;-0.026;2022-11-25T10:10:44;100882.99;;;20.30;37.76
69239;BME280;56349;51.816;-0.026;2022-11-25T10:13:14;100884.03;;;20.55;37.80
69239;BME280;56349;51.816;-0.026;2022-11-25T10:15:35;100885.13;;;20.52;37.86
69239;BME280;56349;51.816;-0.026;2022-11-25T10:18:02;100890.35;;;20.49;37.91
69239;BME280;56349;51.816;-0.026;2022-11-25T10:20:28;100897.76;;;20.46;37.96
69239;BME280;56349;51.816;-0.026;2022-11-25T10:22:54;100901.75;;;20.44;38.00
69239;BME280;56349;51.816;-0.026;2022-11-25T10:25:18;100908.85;;;20.21;37.98
69239;BME280;56349;51.816;-0.026;2022-11-25T10:27:44;100909.54;;;20.52;37.95
69239;BME280;56349;51.816;-0.026;2022-11-25T10:30:15;100908.23;;;20.26;37.94
69239;BME280;56349;51.816;-0.026;2022-11-25T10:32:37;100906.50;;;20.26;37.94
69239;BME280;56349;51.816;-0.026;2022-11-25T10:35:01;100906.52;;;20.55;37.92
69239;BME280;56349;51.816;-0.026;2022-11-25T10:37:27;100906.33;;;20.54;37.92
69239;BME280;56349;51.816;-0.026;2022-11-25T10:39:50;100910.76;;;20.52;37.95
69239;BME280;56349;51.816;-0.026;2022-11-25T10:42:21;100911.33;;;20.25;37.95
69239;BME280;56349;51.816;-0.026;2022-11-25T10:44:41;100919.93;;;20.51;37.97
69239;BME280;56349;51.816;-0.026;2022-11-25T10:47:17;100924.04;;;20.51;37.97
69239;BME280;56349;51.816;-0.026;2022-11-25T10:49:37;100927.30;;;20.49;37.98
69239;BME280;56349;51.816;-0.026;2022-11-25T10:51:56;100936.45;;;20.47;38.00
69239;BME280;56349;51.816;-0.026;2022-11-25T10:54:23;100944.43;;;20.47;38.02
69239;BME280;56349;51.816;-0.026;2022-11-25T10:56:50;100945.15;;;20.43;38.04
69239;BME280;56349;51.816;-0.026;2022-11-25T10:59:23;100944.33;;;20.64;38.06
69239;BME280;56349;51.816;-0.026;2022-11-25T11:01:39;100944.86;;;20.39;38.08
69239;BME280;56349;51.816;-0.026;2022-11-25T11:04:10;100947.87;;;20.36;38.12
69239;BME280;56349;51.816;-0.026;2022-11-25T11:06:32;100949.59;;;20.34;38.15
69239;BME280;56349;51.816;-0.026;2022-11-25T11:08:55;100946.84;;;20.33;38.16
69239;BME280;56349;51.816;-0.026;2022-11-25T11:11:22;100948.36;;;20.05;38.19
69239;BME280;56349;51.816;-0.026;2022-11-25T11:13:48;100948.52;;;20.29;38.21
69239;BME280;56349;51.816;-0.026;2022-11-25T11:16:20;100951.02;;;20.27;38.23
69239;BME280;56349;51.816;-0.026;2022-11-25T11:18:40;100958.34;;;20.28;38.23
69239;BME280;56349;51.816;-0.026;2022-11-25T11:21:06;100963.21;;;20.28;38.24
69239;BME280;56349;51.816;-0.026;2022-11-25T11:23:30;100964.14;;;20.26;38.25
69239;BME280;56349;51.816;-0.026;2022-11-25T11:25:59;100974.96;;;20.23;38.29
69239;BME280;56349;51.816;-0.026;2022-11-25T11:30:55;100973.39;;;20.17;38.35
69239;BME280;56349;51.816;-0.026;2022-11-25T11:35:49;100983.14;;;20.14;38.39
69239;BME280;56349;51.816;-0.026;2022-11-25T11:38:10;100980.90;;;20.15;38.39
69239;BME280;56349;51.816;-0.026;2022-11-25T11:40:36;100986.57;;;20.14;38.39
69239;BME280;56349;51.816;-0.026;2022-11-25T11:43:04;100997.21;;;20.13;38.41
69239;BME280;56349;51.816;-0.026;2022-11-25T11:45:34;100998.06;;;20.35;38.42
69239;BME280;56349;51.816;-0.026;2022-11-25T11:47:55;100998.04;;;20.11;38.45
69239;BME280;56349;51.816;-0.026;2022-11-25T11:50:24;101001.72;;;20.10;38.46
69239;BME280;56349;51.816;-0.026;2022-11-25T11:52:47;100997.96;;;20.09;38.47
69239;BME280;56349;51.816;-0.026;2022-11-25T11:55:16;100998.68;;;20.08;38.47
69239;BME280;56349;51.816;-0.026;2022-11-25T11:57:38;100997.22;;;20.07;38.50
69239;BME280;56349;51.816;-0.026;2022-11-25T11:59:59;101001.08;;;20.27;38.51
69239;BME280;56349;51.816;-0.026;2022-11-25T12:02:28;101011.71;;;20.26;38.54
69239;BME280;56349;51.816;-0.026;2022-11-25T12:04:52;101018.15;;;20.03;38.56
69239;BME280;56349;51.816;-0.026;2022-11-25T12:07:19;101020.86;;;20.02;38.57
69239;BME280;56349;51.816;-0.026;2022-11-25T12:09:45;101025.57;;;20.23;38.57
69239;BME280;56349;51.816;-0.026;2022-11-25T12:12:12;101032.24;;;20.00;38.58
69239;BME280;56349;51.816;-0.026;2022-11-25T12:14:34;101037.18;;;20.43;38.61
69239;BME280;56349;51.816;-0.026;2022-11-25T12:16:57;101041.74;;;19.97;38.62
69239;BME280;56349;51.816;-0.026;2022-11-25T12:19:26;101045.33;;;19.99;38.60
69239;BME280;56349;51.816;-0.026;2022-11-25T12:21:54;101046.22;;;19.99;38.60
69239;BME280;56349;51.816;-0.026;2022-11-25T12:24:17;101048.87;;;19.97;38.63
69239;BME280;56349;51.816;-0.026;2022-11-25T12:26:44;101049.44;;;19.95;38.65
69239;BME280;56349;51.816;-0.026;2022-11-25T12:29:07;101049.93;;;20.17;38.65
69239;BME280;56349;51.816;-0.026;2022-11-25T12:31:34;101052.44;;;20.18;38.65
69239;BME280;56349;51.816;-0.026;2022-11-25T12:34:00;101055.13;;;19.95;38.65
69239;BME280;56349;51.816;-0.026;2022-11-25T12:36:26;101052.67;;;19.95;38.65
69239;BME280;56349;51.816;-0.026;2022-11-25T12:38:49;101054.97;;;20.14;38.67
69239;BME280;56349;51.816;-0.026;2022-11-25T12:41:22;101066.28;;;20.15;38.67
69239;BME280;56349;51.816;-0.026;2022-11-25T12:43:41;101065.15;;;20.15;38.66
69239;BME280;56349;51.816;-0.026;2022-11-25T12:46:11;101069.06;;;19.93;38.66
69239;BME280;56349;51.816;-0.026;2022-11-25T12:48:27;101076.10;;;20.15;38.66
69239;BME280;56349;51.816;-0.026;2022-11-25T12:51:00;101080.01;;;19.90;38.67